createdAt,value
2017-11-17T00:00:02.287Z,97528.02
2017-11-17T00:02:28.462Z,97526.20
2017-11-17T00:04:54.628Z,97526.14
2017-11-17T00:07:20.811Z,97531.83
2017-11-17T00:09:47.031Z,97529.41
2017-11-17T00:12:13.262Z,97524.13
2017-11-17T00:14:39.417Z,97527.10
2017-11-17T00:17:05.596Z,97525.28
2017-11-17T00:19:31.751Z,97521.95
2017-11-17T00:21:57.964Z,97529.48
2017-11-17T00:24:24.159Z,97526.66
2017-11-17T00:26:50.396Z,97530.30
2017-11-17T00:29:16.591Z,97540.61
2017-11-17T00:31:42.774Z,97539.91
2017-11-17T00:34:08.963Z,97534.75
2017-11-17T00:36:35.167Z,97540.05
2017-11-17T00:39:01.385Z,97544.44
2017-11-17T00:41:27.523Z,97545.46
2017-11-17T00:43:53.725Z,97546.99
2017-11-17T00:46:19.898Z,97553.95
2017-11-17T00:48:46.050Z,97541.75
2017-11-17T00:51:12.270Z,97548.08
2017-11-17T00:53:38.441Z,97549.08
2017-11-17T00:56:04.758Z,97545.73
2017-11-17T00:58:31.007Z,97553.67
2017-11-17T01:00:57.097Z,97555.66
2017-11-17T01:03:23.287Z,97548.68
2017-11-17T01:05:49.433Z,97551.11
2017-11-17T01:08:15.619Z,97548.59
2017-11-17T01:10:41.772Z,97554.19
2017-11-17T01:13:08.023Z,97554.84
2017-11-17T01:15:34.257Z,97554.31
2017-11-17T01:18:00.592Z,97548.38
2017-11-17T01:20:26.789Z,97550.44
2017-11-17T01:22:52.974Z,97551.02
2017-11-17T01:25:19.247Z,97549.36
2017-11-17T01:27:45.926Z,97551.48
2017-11-17T01:30:12.069Z,97550.53
2017-11-17T01:32:38.217Z,97546.45
2017-11-17T01:35:04.338Z,97544.07
2017-11-17T01:37:30.444Z,97547.50
2017-11-17T01:39:56.732Z,97547.45
2017-11-17T01:42:22.873Z,97544.86
2017-11-17T01:44:48.954Z,97549.92
2017-11-17T01:47:15.072Z,97536.02
2017-11-17T01:49:41.241Z,97545.13
2017-11-17T01:52:07.384Z,97534.45
2017-11-17T01:54:33.994Z,97534.64
2017-11-17T01:57:00.111Z,97532.11
2017-11-17T01:59:26.509Z,97534.36
2017-11-17T02:01:52.694Z,97531.27
2017-11-17T02:04:19.036Z,97536.88
2017-11-17T02:06:45.177Z,97532.88
2017-11-17T02:09:11.320Z,97540.98
2017-11-17T02:11:38.070Z,97542.73
2017-11-17T02:14:04.311Z,97551.17
2017-11-17T02:16:30.475Z,97557.27
2017-11-17T02:18:56.629Z,97557.22
2017-11-17T02:21:22.752Z,97559.03
2017-11-17T02:23:48.883Z,97559.31
2017-11-17T02:26:15.034Z,97555.45
2017-11-17T02:28:41.138Z,97559.30
2017-11-17T02:31:07.237Z,97558.52
2017-11-17T02:33:33.387Z,97554.86
2017-11-17T02:35:59.513Z,97557.84
2017-11-17T02:38:25.822Z,97563.72
2017-11-17T02:40:51.945Z,97565.29
2017-11-17T02:43:18.330Z,97568.45
2017-11-17T02:45:44.815Z,97562.91
2017-11-17T02:48:10.969Z,97562.22
2017-11-17T02:50:37.543Z,97562.66
2017-11-17T02:53:03.679Z,97567.42
2017-11-17T02:55:29.782Z,97571.97
2017-11-17T02:57:56.192Z,97567.09
2017-11-17T03:00:22.248Z,97573.12
2017-11-17T03:02:48.352Z,97579.56
2017-11-17T03:05:14.456Z,97577.04
2017-11-17T03:07:40.609Z,97574.48
2017-11-17T03:10:06.717Z,97577.23
2017-11-17T03:12:32.802Z,97582.09
2017-11-17T03:14:58.895Z,97583.55
2017-11-17T03:17:24.997Z,97583.96
2017-11-17T03:19:51.194Z,97584.52
2017-11-17T03:22:17.383Z,97578.89
2017-11-17T03:24:43.497Z,97579.73
2017-11-17T03:27:09.588Z,97589.14
2017-11-17T03:29:36.261Z,97591.21
2017-11-17T03:32:02.477Z,97596.23
2017-11-17T03:34:28.601Z,97595.94
2017-11-17T03:36:54.829Z,97592.80
2017-11-17T03:39:20.957Z,97593.80
2017-11-17T03:41:47.213Z,97591.21
2017-11-17T03:44:13.300Z,97595.80
2017-11-17T03:46:39.617Z,97595.16
2017-11-17T03:49:06.005Z,97604.46
2017-11-17T03:51:32.161Z,97608.25
2017-11-17T03:53:58.319Z,97611.38
2017-11-17T03:56:24.436Z,97618.33
2017-11-17T03:58:50.508Z,97614.73
2017-11-17T04:01:16.636Z,97623.08
2017-11-17T04:03:42.764Z,97618.87
2017-11-17T04:06:08.921Z,97622.70
2017-11-17T04:08:35.119Z,97620.19
2017-11-17T04:11:01.289Z,97626.69
2017-11-17T04:13:27.793Z,97618.65
2017-11-17T04:15:53.971Z,97622.37
2017-11-17T04:18:20.065Z,97624.56
2017-11-17T04:20:46.182Z,97620.34
2017-11-17T04:23:12.302Z,97622.23
2017-11-17T04:25:38.785Z,97616.77
2017-11-17T04:28:04.872Z,97620.02
2017-11-17T04:30:31.074Z,97617.63
2017-11-17T04:32:57.252Z,97614.53
2017-11-17T04:35:23.413Z,97620.24
2017-11-17T04:37:49.561Z,97628.03
2017-11-17T04:40:15.684Z,97626.48
2017-11-17T04:42:41.857Z,97631.64
2017-11-17T04:45:07.953Z,97634.80
2017-11-17T04:47:34.080Z,97640.23
2017-11-17T04:50:00.191Z,97641.34
2017-11-17T04:52:26.366Z,97640.28
2017-11-17T04:54:52.475Z,97630.95
2017-11-17T04:57:18.576Z,97631.18
2017-11-17T04:59:44.704Z,97631.18
2017-11-17T05:02:10.782Z,97626.84
2017-11-17T05:04:36.947Z,97623.56
2017-11-17T05:07:03.560Z,97620.69
2017-11-17T05:09:29.742Z,97627.41
2017-11-17T05:11:55.852Z,97633.47
2017-11-17T05:14:21.960Z,97635.72
2017-11-17T05:16:48.112Z,97635.59
2017-11-17T05:19:15.365Z,97633.92
2017-11-17T05:21:41.549Z,97637.47
2017-11-17T05:24:07.661Z,97634.08
2017-11-17T05:26:33.763Z,97627.73
2017-11-17T05:29:00.173Z,97634.12
2017-11-17T05:31:26.272Z,97640.05
2017-11-17T05:33:52.360Z,97631.97
2017-11-17T05:36:18.529Z,97630.03
2017-11-17T05:38:44.699Z,97628.37
2017-11-17T05:41:10.814Z,97639.71
2017-11-17T05:43:36.976Z,97632.04
2017-11-17T05:46:03.069Z,97648.30
2017-11-17T05:48:29.180Z,97653.94
2017-11-17T05:50:55.259Z,97647.42
2017-11-17T05:53:21.347Z,97651.84
2017-11-17T05:55:47.504Z,97649.27
2017-11-17T05:58:13.694Z,97646.33
2017-11-17T06:00:39.884Z,97647.97
2017-11-17T06:03:05.994Z,97643.12
2017-11-17T06:05:32.095Z,97645.78
2017-11-17T06:07:58.231Z,97646.97
2017-11-17T06:10:24.306Z,97647.58
2017-11-17T06:12:50.453Z,97657.12
2017-11-17T06:15:16.971Z,97655.95
2017-11-17T06:17:43.083Z,97655.19
2017-11-17T06:20:09.175Z,97652.91
2017-11-17T06:22:35.282Z,97655.64
2017-11-17T06:25:01.405Z,97658.71
2017-11-17T06:27:27.515Z,97665.30
2017-11-17T06:29:53.615Z,97667.75
2017-11-17T06:32:19.735Z,97671.97
2017-11-17T06:34:45.890Z,97670.45
2017-11-17T06:37:11.965Z,97674.52
2017-11-17T06:39:38.068Z,97670.72
2017-11-17T06:42:04.228Z,97683.68
2017-11-17T06:44:30.293Z,97690.20
2017-11-17T06:46:56.384Z,97696.36
2017-11-17T06:49:22.464Z,97691.45
2017-11-17T06:51:48.566Z,97695.11
2017-11-17T06:54:14.815Z,97702.85
2017-11-17T06:56:42.829Z,97694.27
2017-11-17T06:59:09.721Z,97698.22
2017-11-17T07:01:35.801Z,97692.75
2017-11-17T07:04:01.876Z,97698.34
2017-11-17T07:06:28.007Z,97694.20
2017-11-17T07:08:54.108Z,97698.28
2017-11-17T07:11:20.303Z,97699.34
2017-11-17T07:13:46.441Z,97704.77
2017-11-17T07:16:12.573Z,97706.52
2017-11-17T07:18:38.965Z,97707.67
2017-11-17T07:21:05.056Z,97706.59
2017-11-17T07:23:31.156Z,97713.14
2017-11-17T07:25:57.312Z,97710.31
2017-11-17T07:28:23.482Z,97716.75
2017-11-17T07:30:49.660Z,97715.66
2017-11-17T07:33:15.750Z,97721.59
2017-11-17T07:35:41.806Z,97710.80
2017-11-17T07:38:07.947Z,97720.85
2017-11-17T07:40:34.019Z,97723.06
2017-11-17T07:43:00.135Z,97722.39
2017-11-17T07:45:26.249Z,97723.83
2017-11-17T07:47:52.387Z,97723.38
2017-11-17T07:50:19.054Z,97720.77
2017-11-17T07:52:45.377Z,97729.87
2017-11-17T07:55:11.504Z,97726.16
2017-11-17T07:57:37.593Z,97726.26
2017-11-17T08:00:04.126Z,97729.48
2017-11-17T08:02:30.250Z,97722.86
2017-11-17T08:04:56.342Z,97729.84
2017-11-17T08:07:22.396Z,97731.78
2017-11-17T08:09:48.551Z,97732.15
2017-11-17T08:12:14.678Z,97732.64
2017-11-17T08:14:40.724Z,97729.09
2017-11-17T08:17:18.972Z,97731.91
2017-11-17T08:19:45.228Z,97734.42
2017-11-17T08:22:11.320Z,97728.97
2017-11-17T08:24:37.421Z,97730.00
2017-11-17T08:27:03.543Z,97730.20
2017-11-17T08:29:29.632Z,97735.27
2017-11-17T08:31:55.723Z,97734.82
2017-11-17T08:34:21.910Z,97731.20
2017-11-17T08:36:48.064Z,97730.75
2017-11-17T08:39:14.151Z,97729.25
2017-11-17T08:41:40.249Z,97733.45
2017-11-17T08:44:06.377Z,97724.52
2017-11-17T08:46:32.498Z,97725.27
2017-11-17T08:48:58.770Z,97732.16
2017-11-17T08:51:24.876Z,97739.21
2017-11-17T08:53:50.968Z,97738.58
2017-11-17T08:56:17.024Z,97732.16
2017-11-17T08:58:43.171Z,97727.34
2017-11-17T09:01:09.370Z,97737.94
2017-11-17T09:03:35.592Z,97731.43
2017-11-17T09:06:01.735Z,97744.05
2017-11-17T09:08:27.817Z,97740.30
2017-11-17T09:10:53.981Z,97745.13
2017-11-17T09:13:20.431Z,97747.98
2017-11-17T09:15:46.528Z,97742.16
2017-11-17T09:18:12.985Z,97746.50
2017-11-17T09:20:39.125Z,97749.97
2017-11-17T09:23:05.394Z,97748.33
2017-11-17T09:25:31.538Z,97750.47
2017-11-17T09:27:57.697Z,97753.26
2017-11-17T09:30:23.784Z,97752.36
2017-11-17T09:32:49.957Z,97750.08
2017-11-17T09:35:16.220Z,97755.42
2017-11-17T09:37:42.353Z,97757.16
2017-11-17T09:40:09.056Z,97751.17
2017-11-17T09:42:35.603Z,97753.00
2017-11-17T09:45:01.747Z,97758.34
2017-11-17T09:47:28.344Z,97756.64
2017-11-17T09:49:54.532Z,97749.16
2017-11-17T09:52:20.662Z,97759.37
2017-11-17T09:54:47.436Z,97744.45
2017-11-17T09:57:13.960Z,97743.50
2017-11-17T09:59:40.126Z,97746.38
2017-11-17T10:02:06.861Z,97747.57
2017-11-17T10:04:32.976Z,97742.72
2017-11-17T10:06:59.090Z,97742.73
2017-11-17T10:09:25.244Z,97747.42
2017-11-17T10:11:51.318Z,97746.08
2017-11-17T10:14:17.420Z,97748.84
2017-11-17T10:16:43.866Z,97744.55
2017-11-17T10:19:10.125Z,97743.45
2017-11-17T10:21:36.304Z,97741.43
2017-11-17T10:24:02.847Z,97744.70
2017-11-17T10:26:28.965Z,97747.27
2017-11-17T10:28:55.108Z,97747.02
2017-11-17T10:31:21.571Z,97744.01
2017-11-17T10:33:47.701Z,97743.46
2017-11-17T10:36:13.921Z,97745.63
2017-11-17T10:38:40.396Z,97749.51
2017-11-17T10:41:06.476Z,97747.21
2017-11-17T10:43:32.641Z,97746.00
2017-11-17T10:45:59.175Z,97751.06
2017-11-17T10:48:25.260Z,97747.86
2017-11-17T10:50:51.354Z,97747.70
2017-11-17T10:53:17.898Z,97740.13
2017-11-17T10:55:44.021Z,97736.23
2017-11-17T10:58:10.137Z,97736.81
2017-11-17T11:00:36.481Z,97741.86
2017-11-17T11:03:02.581Z,97734.95
2017-11-17T11:05:29.411Z,97746.84
2017-11-17T11:07:55.820Z,97741.95
2017-11-17T11:10:22.046Z,97737.13
2017-11-17T11:12:48.103Z,97740.77
2017-11-17T11:15:14.655Z,97736.28
2017-11-17T11:17:40.943Z,97734.98
2017-11-17T11:20:07.064Z,97733.02
2017-11-17T11:22:33.594Z,97734.44
2017-11-17T11:24:59.712Z,97732.94
2017-11-17T11:27:25.962Z,97736.66
2017-11-17T11:29:52.497Z,97735.71
2017-11-17T11:32:18.609Z,97731.55
2017-11-17T11:34:44.729Z,97733.50
2017-11-17T11:37:11.267Z,97736.00
2017-11-17T11:39:37.365Z,97732.22
2017-11-17T11:42:03.480Z,97733.50
2017-11-17T11:44:29.599Z,97732.20
2017-11-17T11:46:55.684Z,97729.68
2017-11-17T11:49:22.323Z,97727.40
2017-11-17T11:51:48.407Z,97728.66
2017-11-17T11:54:14.559Z,97734.24
2017-11-17T11:56:40.669Z,97737.17
2017-11-17T11:59:06.799Z,97727.53
2017-11-17T12:01:33.351Z,97730.84
2017-11-17T12:03:59.536Z,97729.20
2017-11-17T12:06:25.665Z,97727.47
2017-11-17T12:08:52.108Z,97729.36
2017-11-17T12:11:18.258Z,97725.15
2017-11-17T12:13:44.352Z,97721.64
2017-11-17T12:16:10.802Z,97723.27
2017-11-17T12:18:36.928Z,97724.82
2017-11-17T12:21:03.064Z,97723.14
2017-11-17T12:23:29.197Z,97727.66
2017-11-17T12:25:55.293Z,97730.84
2017-11-17T12:28:21.843Z,97728.27
2017-11-17T12:30:48.128Z,97731.30
2017-11-17T12:33:14.238Z,97730.65
2017-11-17T12:35:40.598Z,97723.91
2017-11-17T12:38:06.745Z,97723.67
2017-11-17T12:40:32.823Z,97725.09
2017-11-17T12:42:58.958Z,97723.30
2017-11-17T12:45:25.307Z,97730.13
2017-11-17T12:47:51.712Z,97727.98
2017-11-17T12:50:17.862Z,97728.72
2017-11-17T12:52:43.975Z,97723.72
2017-11-17T12:55:10.185Z,97718.86
2017-11-17T12:57:36.367Z,97723.00
2017-11-17T13:00:02.599Z,97717.02
2017-11-17T13:02:28.746Z,97714.00
2017-11-17T13:04:54.907Z,97715.19
2017-11-17T13:07:21.047Z,97713.84
2017-11-17T13:09:47.164Z,97711.79
2017-11-17T13:12:13.314Z,97715.73
2017-11-17T13:14:39.694Z,97717.33
2017-11-17T13:17:05.848Z,97717.29
2017-11-17T13:19:32.003Z,97717.16
2017-11-17T13:21:58.127Z,97713.22
2017-11-17T13:24:24.353Z,97713.58
2017-11-17T13:26:50.554Z,97714.91
2017-11-17T13:29:17.461Z,97711.80
2017-11-17T13:31:43.907Z,97715.33
2017-11-17T13:34:10.170Z,97716.50
2017-11-17T13:36:36.382Z,97716.98
2017-11-17T13:39:02.534Z,97712.88
2017-11-17T13:41:28.790Z,97708.05
2017-11-17T13:43:55.054Z,97704.95
2017-11-17T13:46:21.229Z,97708.63
2017-11-17T13:48:48.647Z,97706.17
2017-11-17T13:51:14.899Z,97696.84
2017-11-17T13:53:41.098Z,97709.45
2017-11-17T13:56:07.564Z,97705.61
2017-11-17T13:58:33.811Z,97700.36
2017-11-17T14:01:00.080Z,97698.97
2017-11-17T14:03:26.325Z,97697.84
2017-11-17T14:05:52.587Z,97699.48
2017-11-17T14:08:18.804Z,97698.30
2017-11-17T14:10:45.096Z,97699.00
2017-11-17T14:13:11.276Z,97698.34
2017-11-17T14:15:37.475Z,97701.72
2017-11-17T14:18:03.786Z,97700.75
2017-11-17T14:20:30.145Z,97702.05
2017-11-17T14:22:56.332Z,97702.25
2017-11-17T14:25:22.625Z,97703.02
2017-11-17T14:27:48.896Z,97704.53
2017-11-17T14:30:15.125Z,97704.02
2017-11-17T14:32:41.370Z,97707.23
2017-11-17T14:35:07.873Z,97696.71
2017-11-17T14:37:34.148Z,97695.92
2017-11-17T14:40:00.364Z,97696.45
2017-11-17T14:42:26.602Z,97696.73
2017-11-17T14:44:52.856Z,97695.77
2017-11-17T14:47:19.139Z,97698.86
2017-11-17T14:49:45.402Z,97696.58
2017-11-17T14:52:11.746Z,97694.85
2017-11-17T14:54:38.026Z,97687.42
2017-11-17T14:57:04.248Z,97689.98
2017-11-17T14:59:30.510Z,97692.34
2017-11-17T15:01:56.767Z,97697.64
2017-11-17T15:04:22.964Z,97697.80
2017-11-17T15:06:49.220Z,97697.91
2017-11-17T15:09:15.485Z,97692.29
2017-11-17T15:11:41.795Z,97701.48
2017-11-17T15:14:08.089Z,97704.30
2017-11-17T15:16:34.344Z,97702.22
2017-11-17T15:19:00.588Z,97704.19
2017-11-17T15:21:26.792Z,97704.98
2017-11-17T15:23:53.080Z,97708.10
2017-11-17T15:26:19.885Z,97707.70
2017-11-17T15:28:46.128Z,97704.60
2017-11-17T15:31:12.426Z,97703.25
2017-11-17T15:33:38.721Z,97699.23
2017-11-17T15:36:04.976Z,97699.71
2017-11-17T15:38:31.346Z,97698.20
2017-11-17T15:40:57.593Z,97697.25
2017-11-17T15:43:23.855Z,97695.02
2017-11-17T15:45:50.123Z,97694.98
2017-11-17T15:48:16.318Z,97696.34
2017-11-17T15:50:42.661Z,97690.83
2017-11-17T15:53:08.893Z,97694.91
2017-11-17T15:55:35.127Z,97690.95
2017-11-17T15:58:01.317Z,97693.61
2017-11-17T16:00:27.512Z,97696.31
2017-11-17T16:02:57.318Z,97696.15
2017-11-17T16:15:08.642Z,97695.38
2017-11-17T16:17:36.526Z,97694.94
2017-11-17T16:20:06.565Z,97692.45
2017-11-17T16:22:32.828Z,97689.53
2017-11-17T16:25:00.429Z,97689.17
2017-11-17T16:27:27.581Z,97691.98
2017-11-17T16:29:54.251Z,97686.69
2017-11-17T16:32:20.958Z,97686.41
2017-11-17T16:34:48.168Z,97685.58
2017-11-17T16:37:14.561Z,97689.16
2017-11-17T16:39:41.761Z,97689.70
2017-11-17T16:42:08.872Z,97685.13
2017-11-17T16:44:36.134Z,97688.52
2017-11-17T16:47:02.782Z,97680.78
2017-11-17T16:49:29.903Z,97684.83
2017-11-17T16:51:56.641Z,97682.25
2017-11-17T16:54:22.960Z,97684.73
2017-11-17T16:56:49.215Z,97687.07
2017-11-17T16:59:15.431Z,97681.30
2017-11-17T17:01:41.642Z,97677.41
2017-11-17T17:04:07.855Z,97678.44
2017-11-17T17:06:34.100Z,97675.58
2017-11-17T17:09:00.423Z,97675.10
2017-11-17T17:11:26.836Z,97681.78
2017-11-17T17:13:53.054Z,97685.52
2017-11-17T17:16:19.296Z,97675.67
2017-11-17T17:18:45.498Z,97682.76
2017-11-17T17:21:11.864Z,97678.14
2017-11-17T17:23:38.129Z,97678.84
2017-11-17T17:26:16.177Z,97678.31
2017-11-17T17:28:42.486Z,97682.99
2017-11-17T17:31:08.733Z,97683.67
2017-11-17T17:33:34.998Z,97678.72
2017-11-17T17:36:01.304Z,97682.76
2017-11-17T17:38:27.558Z,97679.94
2017-11-17T17:40:55.162Z,97678.53
2017-11-17T17:43:21.484Z,97680.33
2017-11-17T17:45:48.736Z,97681.73
2017-11-17T17:48:14.970Z,97677.42
2017-11-17T17:50:41.652Z,97677.02
2017-11-17T17:53:08.011Z,97679.48
2017-11-17T17:55:34.257Z,97675.67
2017-11-17T17:58:00.521Z,97673.06
2017-11-17T18:00:26.744Z,97673.19
2017-11-17T18:02:52.982Z,97674.83
2017-11-17T18:05:19.299Z,97672.91
2017-11-17T18:07:45.647Z,97675.23
2017-11-17T18:10:11.916Z,97670.98
2017-11-17T18:12:38.205Z,97672.94
2017-11-17T18:15:05.209Z,97671.47
2017-11-17T18:17:31.463Z,97680.00
2017-11-17T18:19:57.800Z,97678.48
2017-11-17T18:22:24.048Z,97673.91
2017-11-17T18:24:50.389Z,97674.75
2017-11-17T18:27:16.589Z,97675.42
2017-11-17T18:29:42.814Z,97673.52
2017-11-17T18:32:09.086Z,97667.47
2017-11-17T18:34:35.224Z,97672.14
2017-11-17T18:37:01.448Z,97671.48
2017-11-17T18:39:28.067Z,97678.42
2017-11-17T18:41:54.338Z,97668.86
2017-11-17T18:44:20.731Z,97670.89
2017-11-17T18:46:46.959Z,97665.80
2017-11-17T18:49:13.219Z,97658.73
2017-11-17T18:51:39.369Z,97658.74
2017-11-17T18:54:05.725Z,97654.36
2017-11-17T18:56:32.082Z,97659.25
2017-11-17T18:58:58.279Z,97656.06
2017-11-17T19:01:24.544Z,97663.98
2017-11-17T19:03:50.874Z,97663.71
2017-11-17T19:06:17.146Z,97668.41
2017-11-17T19:08:43.493Z,97662.02
2017-11-17T19:11:09.864Z,97658.88
2017-11-17T19:13:36.172Z,97650.47
2017-11-17T19:16:02.698Z,97654.61
2017-11-17T19:18:29.190Z,97651.31
2017-11-17T19:20:55.612Z,97640.77
2017-11-17T19:23:22.012Z,97646.42
2017-11-17T19:25:48.455Z,97647.86
2017-11-17T19:28:17.910Z,97629.87
2017-11-17T19:30:44.347Z,97638.69
2017-11-17T19:33:10.737Z,97650.19
2017-11-17T19:35:37.101Z,97651.64
2017-11-17T19:38:06.138Z,97644.69
2017-11-17T19:40:32.708Z,97643.95
2017-11-17T19:42:59.124Z,97653.20
2017-11-17T19:45:25.539Z,97649.59
2017-11-17T19:47:52.017Z,97654.69
2017-11-17T19:50:18.412Z,97652.20
2017-11-17T19:52:44.865Z,97653.97
2017-11-17T19:55:11.313Z,97653.05
2017-11-17T19:57:37.717Z,97641.55
2017-11-17T20:00:05.679Z,97641.45
2017-11-17T20:02:32.078Z,97648.13
2017-11-17T20:05:15.831Z,97649.64
2017-11-17T20:07:42.343Z,97657.88
2017-11-17T20:10:08.862Z,97659.00
2017-11-17T20:12:35.343Z,97653.69
2017-11-17T20:15:02.740Z,97652.73
2017-11-17T20:17:29.200Z,97657.95
2017-11-17T20:19:55.668Z,97655.78
2017-11-17T20:22:22.183Z,97656.30
2017-11-17T20:24:48.675Z,97663.03
2017-11-17T20:27:15.685Z,97659.70
2017-11-17T20:29:42.141Z,97654.88
2017-11-17T20:32:16.965Z,97653.45
2017-11-17T20:34:43.610Z,97652.77
2017-11-17T20:37:10.426Z,97643.63
2017-11-17T20:39:36.967Z,97646.27
2017-11-17T20:42:15.023Z,97650.72
2017-11-17T20:44:41.515Z,97648.03
2017-11-17T20:47:07.958Z,97648.95
2017-11-17T20:49:34.580Z,97654.66
2017-11-17T20:52:01.749Z,97653.99
2017-11-17T20:54:28.196Z,97647.38
2017-11-17T20:56:55.637Z,97650.01
2017-11-17T20:59:22.183Z,97652.28
2017-11-17T21:01:48.753Z,97651.21
2017-11-17T21:04:15.192Z,97655.15
2017-11-17T21:06:41.677Z,97658.14
2017-11-17T21:09:08.186Z,97650.95
2017-11-17T21:11:34.684Z,97645.09
2017-11-17T21:14:02.078Z,97639.11
2017-11-17T21:16:29.405Z,97639.08
2017-11-17T21:18:56.042Z,97639.20
2017-11-17T21:21:22.949Z,97638.03
2017-11-17T21:23:50.160Z,97639.41
2017-11-17T21:26:16.763Z,97639.89
2017-11-17T21:28:44.529Z,97641.84
2017-11-17T21:31:11.976Z,97630.96
2017-11-17T21:33:39.308Z,97636.66
2017-11-17T21:36:18.816Z,97636.73
2017-11-17T21:38:48.868Z,97636.46
2017-11-17T21:41:15.215Z,97629.72
2017-11-17T21:43:41.597Z,97630.27
2017-11-17T21:46:07.962Z,97633.53
2017-11-17T21:48:34.362Z,97632.80
2017-11-17T21:51:00.722Z,97637.41
2017-11-17T21:53:26.999Z,97631.06
2017-11-17T21:55:53.466Z,97621.16
2017-11-17T21:58:20.795Z,97631.59
2017-11-17T22:00:47.158Z,97628.98
2017-11-17T22:03:13.494Z,97629.45
2017-11-17T22:05:39.770Z,97626.61
2017-11-17T22:08:06.184Z,97627.28
2017-11-17T22:10:32.360Z,97620.50
2017-11-17T22:12:58.596Z,97616.04
2017-11-17T22:15:24.882Z,97616.41
2017-11-17T22:17:51.130Z,97621.73
2017-11-17T22:20:17.547Z,97619.05
2017-11-17T22:22:43.887Z,97618.65
2017-11-17T22:25:10.272Z,97622.53
2017-11-17T22:27:36.521Z,97617.00
2017-11-17T22:30:09.627Z,97614.69
2017-11-17T22:32:36.043Z,97606.45
2017-11-17T22:35:02.514Z,97611.74
2017-11-17T22:37:28.872Z,97601.99
2017-11-17T22:39:55.105Z,97604.81
2017-11-17T22:42:21.308Z,97605.86
2017-11-17T22:44:47.582Z,97600.47
2017-11-17T22:47:14.317Z,97592.29
2017-11-17T22:49:40.552Z,97595.63
2017-11-17T22:52:07.109Z,97599.36
2017-11-17T22:54:33.367Z,97590.47
2017-11-17T22:56:59.619Z,97579.84
2017-11-17T22:59:26.763Z,97592.44
2017-11-17T23:01:53.024Z,97581.56
2017-11-17T23:04:19.418Z,97584.52
2017-11-17T23:06:45.703Z,97582.73
2017-11-17T23:09:12.003Z,97572.81
2017-11-17T23:11:38.571Z,97577.02
2017-11-17T23:14:04.913Z,97573.00
2017-11-17T23:16:31.153Z,97576.48
2017-11-17T23:18:58.077Z,97572.75
2017-11-17T23:21:24.588Z,97564.77
2017-11-17T23:23:51.062Z,97563.11
2017-11-17T23:26:17.560Z,97562.06
2017-11-17T23:28:44.249Z,97565.47
2017-11-17T23:31:12.108Z,97553.38
2017-11-17T23:33:39.001Z,97547.83
2017-11-17T23:36:05.324Z,97548.53
2017-11-17T23:38:31.516Z,97550.89
2017-11-17T23:40:57.752Z,97537.13
2017-11-17T23:43:23.921Z,97537.28
2017-11-17T23:45:50.128Z,97528.64
2017-11-17T23:48:16.277Z,97526.80
2017-11-17T23:50:42.442Z,97527.19
2017-11-17T23:53:08.674Z,97527.73
2017-11-17T23:55:34.909Z,97530.80
2017-11-17T23:58:01.112Z,97530.22
